Time;durP1;ratioP1;P1;durP2;ratioP2;P2;SDS_P1;SDS_P2;PMS_P1;PMS_P2;Temp;Humidity;BMP_temperature;BMP_pressure;BME280_temperature;BME280_humidity;BME280_pressure;Samples;Min_cycle;Max_cycle;Signal;HPM_P1;HPM_P2
2023/04/17 00:00:13;;;;;;;19.43;14.17;;;;;;;8.46;100.00;102591.22;5088434;28;20305;-36
2023/04/17 00:02:39;;;;;;;19.83;15.68;;;;;;;8.45;100.00;102594.94;5090109;28;20103;-36
2023/04/17 00:05:07;;;;;;;18.83;15.93;;;;;;;8.44;100.00;102591.41;5089790;28;20024;-36
2023/04/17 00:07:40;;;;;;;21.70;16.45;;;;;;;8.35;100.00;102581.63;5089719;28;20095;-36
2023/04/17 00:10:07;;;;;;;21.50;16.25;;;;;;;8.35;100.00;102587.00;5090199;28;20034;-36
2023/04/17 00:12:33;;;;;;;20.35;16.10;;;;;;;8.35;100.00;102576.22;5080678;28;20017;-36
2023/04/17 00:14:59;;;;;;;17.83;16.02;;;;;;;8.38;100.00;102578.59;5076405;28;20016;-36
2023/04/17 00:17:24;;;;;;;19.55;16.70;;;;;;;8.35;100.00;102578.94;5076312;28;20062;-36
2023/04/17 00:19:49;;;;;;;19.67;16.30;;;;;;;8.38;100.00;102577.75;5076026;28;20024;-41
2023/04/17 00:22:15;;;;;;;20.43;16.40;;;;;;;8.35;100.00;102578.09;5076481;28;20029;-34
2023/04/17 00:24:40;;;;;;;21.10;17.70;;;;;;;8.31;100.00;102572.19;5076728;28;20453;-35
2023/04/17 00:27:06;;;;;;;17.83;15.93;;;;;;;8.33;100.00;102567.47;5076515;28;20024;-36
2023/04/17 00:29:32;;;;;;;19.90;16.30;;;;;;;8.34;100.00;102569.13;5076092;28;20102;-36
2023/04/17 00:31:58;;;;;;;18.30;15.10;;;;;;;8.35;100.00;102570.84;5076326;28;20024;-36
2023/04/17 00:34:23;;;;;;;17.75;15.98;;;;;;;8.28;100.00;102559.06;5076528;28;20043;-36
2023/04/17 00:36:49;;;;;;;19.73;16.67;;;;;;;8.34;100.00;102573.69;5076311;28;20031;-36
2023/04/17 00:39:14;;;;;;;18.85;16.85;;;;;;;8.31;100.00;102572.19;5075927;28;20354;-36
2023/04/17 00:41:40;;;;;;;23.70;17.50;;;;;;;8.31;100.00;102565.97;5076418;28;20425;-36
2023/04/17 00:44:05;;;;;;;21.93;16.43;;;;;;;8.29;100.00;102571.50;5075885;28;20441;-36
2023/04/17 00:46:31;;;;;;;18.83;16.83;;;;;;;8.20;100.00;102556.41;5076471;28;20407;-36
2023/04/17 00:48:57;;;;;;;19.55;16.40;;;;;;;8.26;100.00;102569.19;5076293;28;20048;-36
2023/04/17 00:51:22;;;;;;;20.38;16.63;;;;;;;8.25;100.00;102565.66;5076016;28;20020;-36
2023/04/17 00:53:48;;;;;;;18.38;15.93;;;;;;;8.21;100.00;102552.69;5075632;28;20365;-36
2023/04/17 00:56:13;;;;;;;19.48;16.08;;;;;;;8.30;100.00;102567.00;5075358;28;20025;-36
2023/04/17 00:58:42;;;;;;;21.80;16.60;;;;;;;8.26;100.00;102559.25;5076153;28;20023;-36
2023/04/17 01:01:08;;;;;;;18.65;15.77;;;;;;;8.23;100.00;102556.03;5075844;28;20048;-36
2023/04/17 01:03:33;;;;;;;19.17;16.77;;;;;;;8.21;100.00;102558.09;5075467;28;20089;-36
2023/04/17 01:05:59;;;;;;;19.88;16.98;;;;;;;8.21;100.00;102560.78;5075413;28;20444;-36
2023/04/17 01:08:24;;;;;;;21.23;16.88;;;;;;;8.19;100.00;102555.53;5075107;28;20020;-36
2023/04/17 01:10:50;;;;;;;17.75;15.13;;;;;;;8.25;100.00;102559.44;5076171;28;20069;-36
2023/04/17 01:13:15;;;;;;;20.37;14.70;;;;;;;8.25;100.00;102556.72;5075230;28;20021;-36
2023/04/17 01:15:41;;;;;;;16.80;15.07;;;;;;;8.19;100.00;102557.41;5075258;28;20444;-37
2023/04/17 01:18:07;;;;;;;;;;;;;;;8.32;100.00;102562.25;5075583;28;20016;-36
2023/04/17 01:20:33;;;;;;;16.65;14.88;;;;;;;8.22;100.00;102560.59;5075313;28;19915;-36
2023/04/17 01:23:00;;;;;;;16.75;14.63;;;;;;;8.20;100.00;102551.03;5074658;28;20350;-36
2023/04/17 01:25:26;;;;;;;19.98;15.30;;;;;;;8.27;100.00;102562.78;5074450;28;20024;-36
2023/04/17 01:27:51;;;;;;;18.70;15.00;;;;;;;8.26;100.00;102571.88;5075236;28;20375;-36
2023/04/17 01:30:17;;;;;;;16.67;14.50;;;;;;;8.22;100.00;102566.00;5075210;28;20024;-36
2023/04/17 01:32:42;;;;;;;18.88;14.80;;;;;;;8.27;100.00;102569.00;5073918;28;20017;-36
2023/04/17 01:35:08;;;;;;;16.83;14.93;;;;;;;8.18;100.00;102563.81;5075120;28;20028;-36
2023/04/17 01:37:34;;;;;;;17.20;15.40;;;;;;;8.12;100.00;102559.97;5074662;28;20638;-36
2023/04/17 01:39:59;;;;;;;17.05;14.88;;;;;;;8.12;100.00;102565.34;5074663;28;20051;-36
2023/04/17 01:42:25;;;;;;;16.37;14.60;;;;;;;8.11;100.00;102577.16;5074740;28;20017;-36
2023/04/17 01:44:51;;;;;;;16.60;14.98;;;;;;;8.00;100.00;102562.19;5074964;28;20338;-36
2023/04/17 01:47:16;;;;;;;16.13;13.98;;;;;;;8.08;100.00;102566.69;5074295;28;20020;-36
2023/04/17 01:49:41;;;;;;;17.27;13.87;;;;;;;8.09;100.00;102564.84;5074548;28;20017;-36
2023/04/17 01:52:07;;;;;;;17.53;15.00;;;;;;;8.02;100.00;102569.25;5074757;28;20518;-36
2023/04/17 01:54:32;;;;;;;18.47;14.80;;;;;;;8.04;100.00;102568.06;5075059;28;20447;-36
2023/04/17 01:56:58;;;;;;;18.67;14.73;;;;;;;8.00;100.00;102562.19;5074451;28;20311;-36
2023/04/17 01:59:23;;;;;;;16.03;14.30;;;;;;;8.00;100.00;102569.41;5074116;28;20058;-36
2023/04/17 02:01:49;;;;;;;18.00;14.90;;;;;;;8.04;100.00;102573.44;5074142;28;20336;-36
2023/04/17 02:04:14;;;;;;;;;;;;;;;8.13;100.00;102568.88;5074646;28;20048;-36
2023/04/17 02:06:40;;;;;;;16.40;14.23;;;;;;;8.09;100.00;102581.00;5074589;28;19908;-36
2023/04/17 02:09:05;;;;;;;16.73;14.77;;;;;;;8.07;100.00;102572.28;5073932;28;20031;-36
2023/04/17 02:11:31;;;;;;;15.88;14.10;;;;;;;8.07;100.00;102578.50;5073871;28;20734;-36
2023/04/17 02:13:56;;;;;;;18.15;14.35;;;;;;;8.01;100.00;102573.81;5074130;28;20020;-36
2023/04/17 02:16:22;;;;;;;15.63;13.80;;;;;;;8.04;100.00;102578.00;5074151;28;20020;-36
2023/04/17 02:18:48;;;;;;;18.23;14.77;;;;;;;8.04;100.00;102572.59;5073797;28;20030;-36
2023/04/17 02:21:14;;;;;;;16.42;14.73;;;;;;;8.05;100.00;102577.81;5074203;28;20029;-36
2023/04/17 02:23:39;;;;;;;16.75;14.95;;;;;;;8.00;100.00;102575.66;5073957;28;20078;-36
2023/04/17 02:26:05;;;;;;;18.45;15.18;;;;;;;8.01;100.00;102568.41;5073549;28;20065;-36
2023/04/17 02:28:30;;;;;;;15.80;14.05;;;;;;;8.04;100.00;102569.91;5074139;28;20028;-36
2023/04/17 02:30:56;;;;;;;19.27;15.10;;;;;;;7.93;100.00;102565.72;5074822;28;20029;-36
2023/04/17 02:33:21;;;;;;;17.67;15.77;;;;;;;8.00;100.00;102578.34;5074334;28;20048;-36
2023/04/17 02:35:47;;;;;;;18.05;16.02;;;;;;;7.97;100.00;102577.84;5074110;28;20029;-36
2023/04/17 02:38:12;;;;;;;18.90;16.48;;;;;;;8.00;100.00;102578.34;5074048;28;20031;-36
2023/04/17 02:40:38;;;;;;;20.30;16.00;;;;;;;7.98;100.00;102576.84;5073707;28;20405;-36
2023/04/17 02:43:03;;;;;;;18.33;16.23;;;;;;;7.99;100.00;102575.81;5073420;28;20267;-36
2023/04/17 02:45:28;;;;;;;17.40;15.47;;;;;;;8.03;100.00;102566.38;5074296;28;20024;-36
2023/04/17 02:47:54;;;;;;;18.20;16.20;;;;;;;8.05;100.00;102577.81;5074192;28;20039;-36
2023/04/17 02:50:19;;;;;;;21.00;16.30;;;;;;;8.04;100.00;102572.59;5073950;28;20073;-36
2023/04/17 02:52:45;;;;;;;18.88;16.83;;;;;;;8.01;100.00;102568.41;5073526;28;20031;-36
2023/04/17 02:55:10;;;;;;;18.70;16.37;;;;;;;8.02;100.00;102569.25;5073707;28;20031;-36
2023/04/17 02:57:35;;;;;;;18.45;15.73;;;;;;;7.93;100.00;102565.72;5073596;28;20024;-36
2023/04/17 03:00:05;;;;;;;19.03;15.77;;;;;;;7.96;100.00;102571.63;5073269;28;20047;-36
2023/04/17 03:02:30;;;;;;;18.30;16.33;;;;;;;7.93;100.00;102574.66;5073600;28;20255;-36
2023/04/17 03:04:56;;;;;;;20.88;17.88;;;;;;;7.79;100.00;102579.91;5074098;28;20020;-36
2023/04/17 03:07:26;;;;;;;20.70;17.23;;;;;;;7.79;100.00;102575.34;5073693;28;20024;-36
2023/04/17 03:09:52;;;;;;;19.83;16.65;;;;;;;7.85;100.00;102584.59;5074291;28;20095;-36
2023/04/17 03:12:18;;;;;;;19.75;17.20;;;;;;;7.78;100.00;102572.81;5073439;28;20025;-36
2023/04/17 03:14:44;;;;;;;20.02;17.10;;;;;;;7.72;100.00;102577.06;5073427;28;20471;-36
2023/04/17 03:17:10;;;;;;;20.40;16.58;;;;;;;7.82;100.00;102583.09;5073447;28;20034;-36
2023/04/17 03:19:36;;;;;;;20.92;16.08;;;;;;;7.83;100.00;102583.94;5074218;28;20033;-36
2023/04/17 03:22:02;;;;;;;21.30;16.73;;;;;;;7.87;100.00;102590.66;5073291;28;20035;-36
2023/04/17 03:24:28;;;;;;;19.65;16.45;;;;;;;7.86;100.00;102591.69;5073313;28;20112;-36
2023/04/17 03:26:53;;;;;;;20.35;17.48;;;;;;;7.75;100.00;102590.16;5073934;28;20126;-43
2023/04/17 03:29:19;;;;;;;20.23;17.47;;;;;;;7.72;100.00;102588.66;5073252;28;20089;-36
2023/04/17 03:31:44;;;;;;;20.13;17.07;;;;;;;7.68;100.00;102586.47;5073625;28;20265;-36
2023/04/17 03:34:10;;;;;;;19.73;16.42;;;;;;;7.70;100.00;102576.34;5073165;28;20028;-36
2023/04/17 03:36:35;;;;;;;18.90;15.97;;;;;;;7.69;100.00;102582.75;5073229;28;20031;-36
2023/04/17 03:39:00;;;;;;;18.60;15.87;;;;;;;7.73;100.00;102586.81;5073197;28;20316;-36
2023/04/17 03:41:26;;;;;;;21.52;17.02;;;;;;;7.76;100.00;102583.78;5073140;28;20021;-36
2023/04/17 03:43:51;;;;;;;22.38;17.52;;;;;;;7.79;100.00;102585.28;5072868;28;20047;-36
2023/04/17 03:46:17;;;;;;;20.80;17.40;;;;;;;7.75;100.00;102580.22;5073169;28;20428;-36
2023/04/17 03:48:42;;;;;;;21.17;16.47;;;;;;;7.79;100.00;102580.72;5076613;28;20025;-36
2023/04/17 03:51:08;;;;;;;22.33;18.30;;;;;;;7.70;100.00;102584.44;5077249;28;20024;-36
2023/04/17 03:53:33;;;;;;;20.63;17.30;;;;;;;7.65;100.00;102578.72;5076473;28;20035;-36
2023/04/17 03:55:58;;;;;;;20.40;17.67;;;;;;;7.57;100.00;102566.13;5076865;28;20353;-36
2023/04/17 03:58:24;;;;;;;22.10;17.07;;;;;;;7.68;100.00;102578.41;5076745;28;20052;-36
2023/04/17 04:00:54;;;;;;;20.33;17.38;;;;;;;7.71;100.00;102583.41;5076995;28;20080;-36
2023/04/17 04:03:19;;;;;;;22.05;16.75;;;;;;;7.69;100.00;102574.69;5077657;28;20020;-36
2023/04/17 04:05:45;;;;;;;21.88;17.73;;;;;;;7.64;100.00;102569.81;5077352;28;20081;-36
2023/04/17 04:08:10;;;;;;;20.47;16.87;;;;;;;7.70;100.00;102581.75;5076536;28;20353;-36
2023/04/17 04:10:36;;;;;;;19.02;16.15;;;;;;;7.70;100.00;102576.34;5077295;28;20030;-36
2023/04/17 04:13:01;;;;;;;21.33;16.33;;;;;;;7.63;100.00;102570.81;5076336;28;20032;-36
2023/04/17 04:15:26;;;;;;;21.80;17.20;;;;;;;7.66;100.00;102567.81;5076750;28;20255;-36
2023/04/17 04:17:51;;;;;;;21.77;16.80;;;;;;;7.73;100.00;102581.41;5076133;28;20103;-36
2023/04/17 04:20:17;;;;;;;19.10;16.17;;;;;;;7.55;100.00;102559.22;5076378;28;20021;-36
2023/04/17 04:22:43;;;;;;;19.87;16.30;;;;;;;7.72;100.00;102579.75;5076290;28;20031;-36
2023/04/17 04:25:09;;;;;;;18.10;15.75;;;;;;;7.70;100.00;102587.13;5076243;28;20032;-36
2023/04/17 04:27:34;;;;;;;21.45;18.20;;;;;;;7.66;100.00;102583.97;5076154;28;20020;-36
2023/04/17 04:30:00;;;;;;;20.87;17.27;;;;;;;7.62;100.00;102589.84;5076136;28;20468;-36
2023/04/17 04:32:26;;;;;;;21.48;18.05;;;;;;;7.62;100.00;102590.69;5076049;28;20020;-36
2023/04/17 04:34:55;;;;;;;20.65;17.75;;;;;;;7.56;100.00;102579.72;5075760;28;20035;-36
2023/04/17 04:37:20;;;;;;;21.00;18.63;;;;;;;7.52;100.00;102597.25;5075597;28;20341;-36
2023/04/17 04:39:52;;;;;;;21.80;18.35;;;;;;;7.50;100.00;102600.09;5075634;28;20021;-36
2023/04/17 04:42:20;;;;;;;22.13;18.23;;;;;;;7.52;100.00;102594.56;5075651;28;20024;-36
2023/04/17 04:44:46;;;;;;;21.98;19.23;;;;;;;7.48;100.00;102594.88;5075916;28;20060;-36
2023/04/17 04:47:11;;;;;;;24.77;19.45;;;;;;;7.47;100.00;102603.97;5075879;28;20052;-36
2023/04/17 04:49:37;;;;;;;22.77;18.93;;;;;;;7.44;100.00;102595.38;5076598;28;20020;-36
2023/04/17 04:52:02;;;;;;;22.53;18.67;;;;;;;7.43;100.00;102594.56;5075758;28;20107;-36
2023/04/17 04:54:27;;;;;;;23.73;18.60;;;;;;;7.43;100.00;102588.34;5076536;28;20103;-36
2023/04/17 04:56:53;;;;;;;22.13;19.17;;;;;;;7.51;100.00;102598.25;5075917;28;20023;-36
2023/04/17 04:59:18;;;;;;;21.57;18.63;;;;;;;7.58;100.00;102604.66;5075427;28;20034;-36
2023/04/17 05:01:44;;;;;;;21.63;17.97;;;;;;;7.54;100.00;102601.44;5076323;28;20053;-36
2023/04/17 05:04:09;;;;;;;21.53;17.73;;;;;;;7.58;100.00;102610.03;5075732;28;20294;-36
2023/04/17 05:06:34;;;;;;;23.08;19.80;;;;;;;7.47;100.00;102593.22;5075985;28;20312;-36
2023/04/17 05:09:00;;;;;;;23.13;19.13;;;;;;;7.59;100.00;102611.72;5075734;28;20021;-36
2023/04/17 05:11:25;;;;;;;22.20;18.60;;;;;;;7.61;100.00;102610.56;5075910;28;20024;-36
2023/04/17 05:13:51;;;;;;;19.90;17.63;;;;;;;7.62;100.00;102612.22;5074968;28;20538;-36
2023/04/17 05:16:16;;;;;;;26.10;20.70;;;;;;;7.59;100.00;102617.09;5075575;28;20020;-36
2023/04/17 05:18:43;;;;;;;22.43;19.53;;;;;;;7.49;100.00;102610.03;5090914;28;20074;-36
2023/04/17 05:21:08;;;;;;;28.30;20.92;;;;;;;7.44;100.00;102619.63;5075053;28;20016;-36
2023/04/17 05:23:33;;;;;;;23.73;20.20;;;;;;;7.52;100.00;102619.63;5074826;28;20028;-36
2023/04/17 05:25:59;;;;;;;26.87;20.73;;;;;;;7.48;100.00;102619.13;5075348;28;20243;-36
2023/04/17 05:28:26;;;;;;;24.60;19.55;;;;;;;7.53;100.00;102623.16;5074889;28;20048;-36
2023/04/17 05:30:51;;;;;;;27.45;21.05;;;;;;;7.46;100.00;102625.66;5075478;28;20353;-36
2023/04/17 05:33:16;;;;;;;25.50;20.02;;;;;;;7.48;100.00;102627.19;5074906;28;20027;-36
2023/04/17 05:35:42;;;;;;;24.23;20.25;;;;;;;7.52;100.00;102632.25;5074549;28;20028;-36
2023/04/17 05:38:07;;;;;;;26.48;20.05;;;;;;;7.48;100.00;102637.97;5075339;28;20095;-36
2023/04/17 05:40:33;;;;;;;26.90;20.80;;;;;;;7.45;100.00;102632.06;5075256;28;20051;-36
2023/04/17 05:43:08;;;;;;;26.75;22.08;;;;;;;7.42;100.00;102627.88;5075266;28;20091;-36
2023/04/17 05:45:33;;;;;;;25.23;20.02;;;;;;;7.45;100.00;102632.91;5075489;28;20186;-36
2023/04/17 05:47:59;;;;;;;26.17;20.85;;;;;;;7.46;100.00;102634.56;5074554;28;20020;-36
2023/04/17 05:50:24;;;;;;;24.70;21.05;;;;;;;7.43;100.00;102624.16;5075394;28;20034;-36
2023/04/17 05:52:50;;;;;;;28.02;22.48;;;;;;;7.42;100.00;102637.78;5074516;28;20418;-36
2023/04/17 05:55:15;;;;;;;25.55;20.83;;;;;;;7.49;100.00;102638.78;5074056;28;20025;-36
2023/04/17 05:57:41;;;;;;;26.48;22.13;;;;;;;7.43;100.00;102643.00;5074954;28;20069;-36
2023/04/17 06:00:11;;;;;;;26.90;21.30;;;;;;;7.44;100.00;102639.28;5073106;28;20020;-36
2023/04/17 06:02:36;;;;;;;23.27;20.73;;;;;;;7.41;100.00;102626.16;5074888;28;20270;-36
2023/04/17 06:05:05;;;;;;;28.60;22.15;;;;;;;7.39;100.00;102619.28;5074580;28;20386;-36
2023/04/17 06:07:32;;;;;;;29.73;23.38;;;;;;;7.53;100.00;102640.16;5073916;28;20082;-36
2023/04/17 06:09:57;;;;;;;26.67;23.10;;;;;;;7.53;100.00;102644.69;5073390;28;20036;-36
2023/04/17 06:12:22;;;;;;;27.53;20.83;;;;;;;7.57;100.00;102643.34;5074718;28;20020;-36
2023/04/17 06:14:48;;;;;;;25.83;21.02;;;;;;;7.56;100.00;102644.34;5074133;28;20016;-36
2023/04/17 06:17:13;;;;;;;29.97;22.00;;;;;;;7.56;100.00;102639.78;5074609;28;20095;-36
2023/04/17 06:19:39;;;;;;;25.70;21.47;;;;;;;7.48;100.00;102647.88;5074339;28;20020;-36
2023/04/17 06:22:04;;;;;;;27.73;21.27;;;;;;;7.59;100.00;102661.00;5073553;28;20167;-36
2023/04/17 06:24:29;;;;;;;28.20;22.10;;;;;;;7.52;100.00;102657.31;5074559;28;20040;-36
2023/04/17 06:26:55;;;;;;;28.27;22.27;;;;;;;7.54;100.00;102662.53;5074751;28;20673;-36
2023/04/17 06:29:20;;;;;;;27.52;22.33;;;;;;;7.41;100.00;102661.16;5073888;28;20270;-36
2023/04/17 06:31:46;;;;;;;29.25;23.05;;;;;;;7.47;100.00;102667.75;5073840;28;20039;-36
2023/04/17 06:34:11;;;;;;;26.23;21.30;;;;;;;7.44;100.00;102666.22;5073450;28;20023;-36
2023/04/17 06:36:37;;;;;;;28.47;22.30;;;;;;;7.45;100.00;102665.19;5073729;28;20078;-36
2023/04/17 06:39:03;;;;;;;28.48;22.98;;;;;;;7.41;100.00;102666.53;5073813;28;20409;-36
2023/04/17 06:41:28;;;;;;;26.63;21.50;;;;;;;7.35;100.00;102653.75;5073528;28;20469;-36
2023/04/17 06:43:53;;;;;;;25.70;21.50;;;;;;;7.44;100.00;102666.22;5073515;28;20369;-36
2023/04/17 06:46:21;;;;;;;29.00;21.70;;;;;;;7.40;100.00;102672.09;5074612;28;20016;-36
2023/04/17 06:48:48;;;;;;;27.52;21.10;;;;;;;7.38;100.00;102666.88;5073621;28;20020;-36
2023/04/17 06:51:13;;;;;;;27.77;22.67;;;;;;;7.45;100.00;102677.81;5074179;28;20368;-36
2023/04/17 06:53:39;;;;;;;26.20;22.75;;;;;;;7.47;100.00;102678.50;5073623;28;20054;-36
2023/04/17 06:56:05;;;;;;;28.23;21.27;;;;;;;7.43;100.00;102672.59;5073867;28;20401;-36
2023/04/17 06:58:30;;;;;;;26.80;22.15;;;;;;;7.43;100.00;102671.78;5073734;28;20029;-35
2023/04/17 07:00:55;;;;;;;23.93;20.57;;;;;;;7.52;100.00;102684.25;5073927;28;20411;-36
2023/04/17 07:03:21;;;;;;;25.47;21.87;;;;;;;7.44;100.00;102670.75;5073624;28;20103;-36
2023/04/17 07:05:47;;;;;;;27.90;22.07;;;;;;;7.52;100.00;102680.72;5073272;28;20024;-36
2023/04/17 07:08:14;;;;;;;24.58;20.63;;;;;;;7.57;100.00;102689.13;5073160;28;20025;-36
2023/04/17 07:10:40;;;;;;;26.80;22.00;;;;;;;7.57;100.00;102692.66;5074283;28;20032;-36
2023/04/17 07:13:05;;;;;;;23.67;20.98;;;;;;;7.59;100.00;102692.47;5074221;28;20050;-36
2023/04/17 07:15:31;;;;;;;24.38;21.52;;;;;;;7.63;100.00;102704.59;5073773;28;20029;-36
2023/04/17 07:17:56;;;;;;;26.67;23.70;;;;;;;7.49;100.00;102692.63;5073675;28;20027;-36
2023/04/17 07:20:22;;;;;;;26.27;23.40;;;;;;;7.61;100.00;102706.59;5073855;28;20027;-36
2023/04/17 07:22:48;;;;;;;26.00;22.48;;;;;;;7.63;100.00;102707.31;5075621;28;20028;-36
2023/04/17 07:25:14;;;;;;;26.73;23.98;;;;;;;7.66;100.00;102709.66;5077630;28;20487;-36
2023/04/17 07:27:39;;;;;;;26.83;22.65;;;;;;;7.69;100.00;102710.16;5077397;28;20099;-36
2023/04/17 07:30:07;;;;;;;24.83;21.87;;;;;;;7.75;100.00;102711.34;5077346;28;20036;-36
2023/04/17 07:32:32;;;;;;;24.73;21.52;;;;;;;7.79;100.00;102710.00;5076501;28;20267;-36
2023/04/17 07:34:57;;;;;;;25.37;21.83;;;;;;;7.83;100.00;102707.81;5077792;28;20028;-36
2023/04/17 07:37:23;;;;;;;24.43;21.73;;;;;;;7.78;100.00;102713.72;5076908;28;20035;-36
2023/04/17 07:39:51;;;;;;;26.53;20.63;;;;;;;7.76;100.00;102715.75;5077688;28;20058;-36
2023/04/17 07:42:17;;;;;;;25.70;21.45;;;;;;;7.78;100.00;102719.09;5077023;28;20031;-36
2023/04/17 07:44:42;;;;;;;25.97;20.67;;;;;;;7.82;100.00;102720.44;5077044;28;20033;-36
2023/04/17 07:47:07;;;;;;;22.23;19.80;;;;;;;7.81;100.00;102716.09;5076719;28;20282;-36
2023/04/17 07:49:33;;;;;;;22.87;20.37;;;;;;;7.82;100.00;102709.69;5077835;28;20437;-36
2023/04/17 07:51:59;;;;;;;22.95;19.75;;;;;;;7.87;100.00;102718.09;5076547;28;20491;-36
2023/04/17 07:54:24;;;;;;;22.40;20.10;;;;;;;7.86;100.00;102719.13;5076827;28;20082;-36
2023/04/17 07:56:49;;;;;;;21.63;19.30;;;;;;;7.89;100.00;102720.63;5077146;28;20025;-36
2023/04/17 07:59:15;;;;;;;22.47;18.90;;;;;;;7.81;100.00;102716.09;5077069;28;20020;-36
2023/04/17 08:01:41;;;;;;;21.30;18.88;;;;;;;7.91;100.00;102724.00;5076975;28;20054;-36
2023/04/17 08:04:09;;;;;;;20.80;18.60;;;;;;;7.97;100.00;102729.56;5076352;28;20432;-36
2023/04/17 08:06:34;;;;;;;21.55;18.75;;;;;;;7.99;100.00;102722.13;5077165;28;20103;-36
2023/04/17 08:09:01;;;;;;;20.70;18.50;;;;;;;8.01;100.00;102724.69;5077079;28;20524;-36
2023/04/17 08:11:27;;;;;;;22.30;19.20;;;;;;;7.97;100.00;102734.09;5076238;28;20267;-36
2023/04/17 08:13:53;;;;;;;;;;;;;;;8.15;100.00;102728.53;5076866;28;20078;-36
2023/04/17 08:16:18;;;;;;;22.63;18.90;;;;;;;8.26;100.00;102725.50;5076485;28;19908;-36
2023/04/17 08:18:43;;;;;;;22.73;19.07;;;;;;;8.28;100.00;102723.47;5076652;28;20100;-36
2023/04/17 08:21:09;;;;;;;20.00;17.20;;;;;;;8.36;100.00;102723.50;5076615;28;20468;-35
2023/04/17 08:23:34;;;;;;;21.75;19.42;;;;;;;8.36;100.00;102725.34;5077059;28;20496;-37
2023/04/17 08:26:00;;;;;;;21.07;18.07;;;;;;;8.37;100.00;102717.09;5076393;28;20503;-37
2023/04/17 08:28:25;;;;;;;22.57;19.80;;;;;;;8.41;100.00;102723.84;5075997;28;20126;-36
2023/04/17 08:30:51;;;;;;;23.47;20.03;;;;;;;8.38;100.00;102729.56;5076479;28;20749;-35
2023/04/17 08:33:17;;;;;;;21.60;19.20;;;;;;;8.48;100.00;102723.97;5075620;28;20111;-35
2023/04/17 08:35:43;;;;;;;24.33;19.88;;;;;;;8.57;100.00;102733.75;5076385;28;20024;-36
2023/04/17 08:38:12;;;;;;;21.10;18.77;;;;;;;8.65;100.00;102728.34;5076011;28;20046;-35
2023/04/17 08:40:40;;;;;;;20.98;18.30;;;;;;;8.76;100.00;102729.81;5076177;28;20052;-35
2023/04/17 08:43:12;;;;;;;20.65;18.45;;;;;;;8.85;100.00;102734.19;5076176;28;20063;-35
2023/04/17 08:45:42;;;;;;;23.02;17.92;;;;;;;8.88;100.00;102716.78;5076186;28;20388;-35
2023/04/17 08:48:07;;;;;;;20.35;18.15;;;;;;;9.06;100.00;102725.50;5075804;28;20031;-35
2023/04/17 08:50:34;;;;;;;20.73;18.50;;;;;;;9.05;100.00;102717.59;5076653;28;20028;-35
2023/04/17 08:52:59;;;;;;;;;;;;;;;9.19;100.00;102731.19;5076710;28;20019;-35
2023/04/17 08:55:27;;;;;;;20.33;17.48;;;;;;;9.24;100.00;102738.75;5075984;28;19904;-36
2023/04/17 08:58:05;;;;;;;19.13;17.20;;;;;;;9.27;100.00;102733.84;5075354;28;20112;-35
2023/04/17 09:00:35;;;;;;;20.38;18.17;;;;;;;9.21;100.00;102733.69;5074995;28;20021;-35
2023/04/17 09:03:03;;;;;;;20.20;17.65;;;;;;;9.14;100.00;102733.56;5075567;28;20028;-36
2023/04/17 09:05:34;;;;;;;19.40;17.30;;;;;;;9.20;100.00;102732.03;5075323;28;20025;-35
2023/04/17 09:08:16;;;;;;;21.40;18.33;;;;;;;9.28;100.00;102735.53;5074800;28;20025;-36
2023/04/17 09:10:46;;;;;;;24.48;19.50;;;;;;;9.22;100.00;102732.66;5075652;28;20034;-36
2023/04/17 09:13:16;;;;;;;20.25;18.00;;;;;;;9.38;100.00;102739.88;5075384;28;20073;-35
2023/04/17 09:15:43;;;;;;;21.38;19.08;;;;;;;9.44;100.00;102737.28;5075855;28;20090;-36
2023/04/17 09:18:29;;;;;;;20.35;17.95;;;;;;;9.53;100.00;102738.94;5075288;28;20475;-36
2023/04/17 09:20:56;;;;;;;20.20;18.17;;;;;;;9.52;100.00;102729.16;5075707;28;20060;-36
2023/04/17 09:23:22;;;;;;;20.02;17.92;;;;;;;9.79;100.00;102732.34;5075390;28;20074;-36
2023/04/17 09:26:04;;;;;;;20.63;18.25;;;;;;;9.78;100.00;102725.25;5075695;28;20410;-36
2023/04/17 09:28:34;;;;;;;20.42;18.33;;;;;;;9.85;100.00;102731.63;5075909;28;20043;-36
2023/04/17 09:31:03;;;;;;;21.05;18.75;;;;;;;9.88;100.00;102719.63;5075284;28;20025;-36
2023/04/17 09:33:28;;;;;;;19.38;17.38;;;;;;;10.03;100.00;102720.50;5074726;28;20066;-36
2023/04/17 09:35:53;;;;;;;19.97;17.63;;;;;;;10.28;100.00;102732.81;5075293;28;20024;-36
2023/04/17 09:38:36;;;;;;;19.60;17.60;;;;;;;10.34;100.00;102736.66;5075447;28;20020;-36
2023/04/17 09:41:02;;;;;;;18.90;16.90;;;;;;;10.32;100.00;102717.06;5074710;28;20025;-36
2023/04/17 09:43:42;;;;;;;20.50;17.93;;;;;;;10.50;100.00;102731.09;5075053;28;20502;-36
2023/04/17 09:46:07;;;;;;;19.30;17.30;;;;;;;10.60;100.00;102727.28;5073676;28;20270;-36
2023/04/17 09:48:33;;;;;;;18.10;16.13;;;;;;;10.74;100.00;102726.47;5074697;28;20024;-36
2023/04/17 09:50:59;;;;;;;18.80;16.80;;;;;;;10.71;100.00;102719.53;5075478;28;20031;-36
2023/04/17 09:53:24;;;;;;;18.05;15.32;;;;;;;11.00;100.00;102724.09;5074596;28;20085;-36
2023/04/17 09:55:52;;;;;;;19.65;17.10;;;;;;;10.98;100.00;102726.19;5074844;28;20111;-36
2023/04/17 09:58:18;;;;;;;17.80;15.70;;;;;;;11.09;100.00;102725.69;5073483;28;20350;-36
2023/04/17 10:00:44;;;;;;;17.92;16.10;;;;;;;11.19;100.00;102721.84;5074954;28;20472;-36
2023/04/17 10:03:14;;;;;;;18.50;16.50;;;;;;;11.32;100.00;102727.41;5075276;28;20189;-36
2023/04/17 10:05:39;;;;;;;20.02;16.52;;;;;;;11.38;100.00;102729.38;5074072;28;20020;-43
2023/04/17 10:08:06;;;;;;;18.83;16.83;;;;;;;11.47;100.00;102706.56;5074247;28;20099;-37
2023/04/17 10:10:33;;;;;;;16.88;15.13;;;;;;;11.67;100.00;102725.75;5074472;28;20330;-36
2023/04/17 10:13:05;;;;;;;17.80;15.65;;;;;;;11.78;100.00;102725.22;5074134;28;20020;-36
2023/04/17 10:15:32;;;;;;;20.25;16.35;;;;;;;11.73;99.75;102724.13;5075018;28;20033;-36
2023/04/17 10:18:21;;;;;;;17.67;15.43;;;;;;;11.65;100.00;102722.38;5074055;28;20032;-37
2023/04/17 10:20:48;;;;;;;17.77;15.98;;;;;;;11.72;100.00;102706.19;5074017;28;20077;-36
2023/04/17 10:23:34;;;;;;;18.83;15.70;;;;;;;11.87;100.00;102717.00;5074048;28;20181;-36
2023/04/17 10:26:24;;;;;;;17.08;15.30;;;;;;;11.90;100.00;102719.31;5073567;28;20032;-36
2023/04/17 10:28:51;;;;;;;18.02;15.90;;;;;;;11.92;98.99;102725.38;5074243;28;20025;-36
2023/04/17 10:31:17;;;;;;;19.42;16.80;;;;;;;11.90;99.25;102722.84;5073665;28;20073;-36
2023/04/17 10:33:51;;;;;;;19.00;16.92;;;;;;;12.03;99.13;102724.84;5073873;28;20111;-36
2023/04/17 10:36:35;;;;;;;17.83;15.95;;;;;;;11.99;98.41;102713.56;5073870;28;20068;-36
2023/04/17 10:39:21;;;;;;;17.88;16.05;;;;;;;12.04;98.92;102721.94;5073475;28;20079;-36
2023/04/17 10:42:05;;;;;;;17.88;16.08;;;;;;;12.00;97.96;102717.94;5073269;28;20028;-36
2023/04/17 10:44:34;;;;;;;16.70;14.90;;;;;;;12.16;97.16;102713.28;5072420;28;20030;-36
2023/04/17 10:47:08;;;;;;;18.20;16.30;;;;;;;12.19;96.53;102699.31;5074017;28;20025;-36
2023/04/17 10:49:49;;;;;;;17.02;15.30;;;;;;;12.25;93.54;102717.53;5073653;28;20059;-36
2023/04/17 10:52:33;;;;;;;22.40;16.60;;;;;;;12.19;95.82;102710.19;5073609;28;20028;-36
2023/04/17 10:55:19;;;;;;;18.25;16.02;;;;;;;12.34;95.06;102705.50;5073406;28;20026;-36
2023/04/17 10:58:10;;;;;;;15.73;14.07;;;;;;;12.48;93.38;102711.84;5073372;28;20032;-36
2023/04/17 11:00:48;;;;;;;16.50;14.68;;;;;;;12.43;89.21;102712.44;5074127;28;20024;-36
2023/04/17 11:03:14;;;;;;;15.32;13.73;;;;;;;12.56;88.38;102703.56;5074146;28;20095;-35
2023/04/17 11:05:46;;;;;;;14.48;12.90;;;;;;;12.68;88.59;102693.81;5073793;28;20071;-35
2023/04/17 11:08:12;;;;;;;15.32;13.73;;;;;;;12.85;86.81;102700.59;5072694;28;20403;-36